createdAt,value
2023-01-09T00:02:13.955Z,7.20
2023-01-09T00:04:45.637Z,7.30
2023-01-09T00:07:17.376Z,7.30
2023-01-09T00:09:49.090Z,7.20
2023-01-09T00:12:20.819Z,7.20
2023-01-09T00:14:52.496Z,7.20
2023-01-09T00:17:24.702Z,7.20
2023-01-09T00:19:56.410Z,7.10
2023-01-09T00:22:28.212Z,7.10
2023-01-09T00:24:59.920Z,7.10
2023-01-09T00:27:32.993Z,7.20
2023-01-09T00:30:05.181Z,7.20
2023-01-09T00:32:36.908Z,7.10
2023-01-09T00:35:13.980Z,7.10
2023-01-09T00:37:45.968Z,7.20
2023-01-09T00:40:18.365Z,7.20
2023-01-09T00:42:56.631Z,7.20
2023-01-09T00:45:29.976Z,7.20
2023-01-09T00:48:07.863Z,7.20
2023-01-09T00:50:39.699Z,7.20
2023-01-09T00:53:16.404Z,7.20
2023-01-09T00:55:48.137Z,7.20
2023-01-09T00:58:19.975Z,7.20
2023-01-09T01:00:51.754Z,7.20
2023-01-09T01:03:23.477Z,7.20
2023-01-09T01:06:13.822Z,7.20
2023-01-09T01:08:46.406Z,7.20
2023-01-09T01:11:18.147Z,7.20
2023-01-09T01:13:50.320Z,7.10
2023-01-09T01:16:22.103Z,7.10
2023-01-09T01:18:53.856Z,7.10
2023-01-09T01:21:25.607Z,7.10
2023-01-09T01:23:57.333Z,7.10
2023-01-09T01:26:29.047Z,7.10
2023-01-09T01:29:00.736Z,7.10
2023-01-09T01:31:32.393Z,7.10
2023-01-09T01:34:04.381Z,7.10
2023-01-09T01:36:36.096Z,7.10
2023-01-09T01:39:07.849Z,7.10
2023-01-09T01:41:39.703Z,7.00
2023-01-09T01:44:48.823Z,7.00
2023-01-09T01:47:23.476Z,7.00
2023-01-09T01:49:56.152Z,7.00
2023-01-09T01:52:28.161Z,7.00
2023-01-09T01:55:00.363Z,7.00
2023-01-09T01:57:34.066Z,6.90
2023-01-09T02:00:07.130Z,6.90
2023-01-09T02:02:38.924Z,6.90
2023-01-09T02:05:11.208Z,6.90
2023-01-09T02:07:42.908Z,6.90
2023-01-09T02:10:15.367Z,6.90
2023-01-09T02:12:47.108Z,6.90
2023-01-09T02:15:19.592Z,6.90
2023-01-09T02:18:24.866Z,6.90
2023-01-09T02:21:24.780Z,6.90
2023-01-09T02:24:02.563Z,6.80
2023-01-09T02:26:53.114Z,6.80
2023-01-09T02:30:02.484Z,6.80
2023-01-09T02:32:46.796Z,6.80
2023-01-09T02:35:46.337Z,6.90
2023-01-09T02:38:41.198Z,6.90
2023-01-09T02:41:25.716Z,6.90
2023-01-09T02:44:25.518Z,6.90
2023-01-09T02:47:20.733Z,6.90
2023-01-09T02:49:58.351Z,6.90
2023-01-09T02:52:57.092Z,6.90
2023-01-09T02:55:48.624Z,6.80
2023-01-09T02:58:39.169Z,6.80
2023-01-09T03:01:35.236Z,6.80
2023-01-09T03:04:19.309Z,6.70
2023-01-09T03:07:04.951Z,6.70
2023-01-09T03:09:41.282Z,6.70
2023-01-09T03:12:20.881Z,6.60
2023-01-09T03:14:57.688Z,6.60
2023-01-09T03:17:37.869Z,6.50
2023-01-09T03:20:12.352Z,6.50
2023-01-09T03:23:05.480Z,6.50
2023-01-09T03:25:37.205Z,6.40
2023-01-09T03:28:17.621Z,6.40
2023-01-09T03:30:49.336Z,6.40
2023-01-09T03:33:21.349Z,6.40
2023-01-09T03:35:53.101Z,6.40
2023-01-09T03:38:24.893Z,6.40
2023-01-09T03:40:56.612Z,6.30
2023-01-09T03:43:28.599Z,6.40
2023-01-09T03:46:01.149Z,6.40
2023-01-09T03:48:32.937Z,6.40
2023-01-09T03:51:04.627Z,6.40
2023-01-09T03:53:36.396Z,6.40
2023-01-09T03:56:08.323Z,6.40
2023-01-09T03:58:40.012Z,6.40
2023-01-09T04:01:13.020Z,6.40
2023-01-09T04:03:44.875Z,6.40
2023-01-09T04:06:16.599Z,6.40
2023-01-09T04:08:48.277Z,6.40
2023-01-09T04:11:22.393Z,6.40
2023-01-09T04:13:54.081Z,6.40
2023-01-09T04:16:25.903Z,6.40
2023-01-09T04:18:57.673Z,6.30
2023-01-09T04:21:29.374Z,6.20
2023-01-09T04:24:01.068Z,6.10
2023-01-09T04:26:32.883Z,6.10
2023-01-09T04:29:04.581Z,5.90
2023-01-09T04:31:36.368Z,5.90
2023-01-09T04:34:08.068Z,5.80
2023-01-09T04:36:40.149Z,5.80
2023-01-09T04:39:11.874Z,5.80
2023-01-09T04:41:49.582Z,5.70
2023-01-09T04:44:26.155Z,5.70
2023-01-09T04:46:58.998Z,5.60
2023-01-09T04:49:30.827Z,5.60
2023-01-09T04:52:02.506Z,5.50
2023-01-09T04:54:34.535Z,5.50
2023-01-09T04:57:06.588Z,5.50
2023-01-09T04:59:38.266Z,5.40
2023-01-09T05:02:10.891Z,5.40
2023-01-09T05:04:42.720Z,5.30
2023-01-09T05:07:14.591Z,5.30
2023-01-09T05:09:46.362Z,5.30
2023-01-09T05:12:18.031Z,5.30
2023-01-09T05:14:49.735Z,5.20
2023-01-09T05:17:21.417Z,5.20
2023-01-09T05:19:53.187Z,5.10
2023-01-09T05:22:24.944Z,5.00
2023-01-09T05:24:57.541Z,5.00
2023-01-09T05:27:30.488Z,5.00
2023-01-09T05:30:02.266Z,4.90
2023-01-09T05:32:33.956Z,4.90
2023-01-09T05:35:06.336Z,4.90
2023-01-09T05:37:38.125Z,4.90
2023-01-09T05:40:10.649Z,4.90
2023-01-09T05:42:43.912Z,4.80
2023-01-09T05:45:15.576Z,4.80
2023-01-09T05:47:47.249Z,4.70
2023-01-09T05:50:19.046Z,4.70
2023-01-09T05:52:50.777Z,4.60
2023-01-09T05:55:22.485Z,4.60
2023-01-09T05:57:54.166Z,4.50
2023-01-09T06:00:26.064Z,4.50
2023-01-09T06:02:57.876Z,4.50
2023-01-09T06:05:29.692Z,4.50
2023-01-09T06:08:01.448Z,4.40
2023-01-09T06:10:33.115Z,4.40
2023-01-09T06:13:04.923Z,4.40
2023-01-09T06:15:36.685Z,4.40
2023-01-09T06:18:08.745Z,4.40
2023-01-09T06:20:40.530Z,4.40
2023-01-09T06:23:13.586Z,4.40
2023-01-09T06:25:45.625Z,4.40
2023-01-09T06:28:17.297Z,4.40
2023-01-09T06:30:53.147Z,4.40
2023-01-09T06:33:24.904Z,4.40
2023-01-09T06:35:56.614Z,4.40
2023-01-09T06:38:28.317Z,4.40
2023-01-09T06:41:00.131Z,4.40
2023-01-09T06:43:31.838Z,4.40
2023-01-09T06:46:05.730Z,4.40
2023-01-09T06:48:37.512Z,4.40
2023-01-09T06:51:09.196Z,4.40
2023-01-09T06:53:40.982Z,4.40
2023-01-09T06:56:12.713Z,4.40
2023-01-09T06:58:44.395Z,4.40
2023-01-09T07:01:16.187Z,4.50
2023-01-09T07:03:48.641Z,4.50
2023-01-09T07:06:20.622Z,4.50
2023-01-09T07:08:52.317Z,4.50
2023-01-09T07:11:24.034Z,4.50
2023-01-09T07:13:55.769Z,4.50
2023-01-09T07:16:27.505Z,4.50
2023-01-09T07:18:59.992Z,4.60
2023-01-09T07:21:32.845Z,4.60
2023-01-09T07:24:04.890Z,4.60
2023-01-09T07:26:36.583Z,4.60
2023-01-09T07:29:08.266Z,4.70
2023-01-09T07:31:40.074Z,4.70
2023-01-09T07:34:11.819Z,4.70
2023-01-09T07:36:46.509Z,4.80
2023-01-09T07:39:18.293Z,4.80
2023-01-09T07:41:49.955Z,4.80
2023-01-09T07:44:21.711Z,4.80
2023-01-09T07:46:53.477Z,4.80
2023-01-09T07:49:26.832Z,4.70
2023-01-09T07:51:59.819Z,4.70
2023-01-09T07:54:31.591Z,4.70
2023-01-09T07:57:03.355Z,4.70
2023-01-09T07:59:35.097Z,4.70
2023-01-09T08:02:07.202Z,4.70
2023-01-09T08:04:38.940Z,4.70
2023-01-09T08:07:10.672Z,4.70
2023-01-09T08:09:42.411Z,4.70
2023-01-09T08:12:14.117Z,4.70
2023-01-09T08:14:45.837Z,4.70
2023-01-09T08:17:17.635Z,4.70
2023-01-09T08:19:49.323Z,4.80
2023-01-09T08:22:21.103Z,4.80
2023-01-09T08:24:52.815Z,4.80
2023-01-09T08:27:24.485Z,4.90
2023-01-09T08:29:56.194Z,4.90
2023-01-09T08:32:27.855Z,5.00
2023-01-09T08:34:59.652Z,5.00
2023-01-09T08:37:31.440Z,5.10
2023-01-09T08:40:03.466Z,5.20
2023-01-09T08:42:54.163Z,5.20
2023-01-09T08:45:44.581Z,5.30
2023-01-09T08:48:16.928Z,5.30
2023-01-09T08:50:48.772Z,5.40
2023-01-09T08:53:20.937Z,5.50
2023-01-09T08:55:52.615Z,5.50
2023-01-09T08:58:24.328Z,5.60
2023-01-09T09:00:56.337Z,5.80
2023-01-09T09:03:28.094Z,5.90
2023-01-09T09:05:59.767Z,5.80
2023-01-09T09:08:31.517Z,5.90
2023-01-09T09:11:03.265Z,6.00
2023-01-09T09:13:35.009Z,6.20
2023-01-09T09:16:06.939Z,6.40
2023-01-09T09:18:38.752Z,6.60
2023-01-09T09:21:11.582Z,6.60
2023-01-09T09:23:44.378Z,6.60
2023-01-09T09:26:16.060Z,6.70
2023-01-09T09:28:47.739Z,6.80
2023-01-09T09:31:19.464Z,7.10
2023-01-09T09:33:51.253Z,7.40
2023-01-09T09:36:22.955Z,7.20
2023-01-09T09:38:54.657Z,7.00
2023-01-09T09:42:03.659Z,6.90
2023-01-09T09:44:59.429Z,6.80
2023-01-09T09:47:51.893Z,6.70
2023-01-09T09:50:44.866Z,6.80
2023-01-09T09:53:28.875Z,6.80
2023-01-09T09:56:02.633Z,6.80
2023-01-09T09:58:45.456Z,6.70
2023-01-09T10:01:23.947Z,6.70
2023-01-09T10:04:00.489Z,6.70
2023-01-09T10:06:42.241Z,6.60
2023-01-09T10:09:26.264Z,6.50
2023-01-09T10:12:27.490Z,6.60
2023-01-09T10:15:01.323Z,6.70
2023-01-09T10:17:51.908Z,6.70
2023-01-09T10:20:48.678Z,6.70
2023-01-09T10:23:20.607Z,6.70
2023-01-09T10:26:05.240Z,6.60
2023-01-09T10:28:58.897Z,6.70
2023-01-09T10:31:58.082Z,6.60
2023-01-09T10:34:35.688Z,6.60
2023-01-09T10:37:26.894Z,6.60
2023-01-09T10:40:16.493Z,6.60
2023-01-09T10:43:14.203Z,6.60
2023-01-09T10:45:54.475Z,6.60
2023-01-09T10:48:37.234Z,6.50
2023-01-09T10:51:25.323Z,6.60
2023-01-09T10:53:57.245Z,6.50
2023-01-09T10:56:37.305Z,6.60
2023-01-09T10:59:09.647Z,6.60
2023-01-09T11:01:43.290Z,6.70
2023-01-09T11:04:20.520Z,6.70
2023-01-09T11:06:58.585Z,6.70
2023-01-09T11:09:57.357Z,6.80
2023-01-09T11:12:31.451Z,6.80
2023-01-09T11:15:20.862Z,6.90
2023-01-09T11:17:52.555Z,6.90
2023-01-09T11:20:27.755Z,6.90
2023-01-09T11:22:59.512Z,7.00
2023-01-09T11:25:31.285Z,7.00
2023-01-09T11:28:09.797Z,7.20
2023-01-09T11:31:02.182Z,7.90
2023-01-09T11:33:43.005Z,8.40
2023-01-09T11:36:15.995Z,8.20
2023-01-09T11:38:57.317Z,8.00
2023-01-09T11:41:34.581Z,7.80
2023-01-09T11:44:06.368Z,7.70
2023-01-09T11:46:39.522Z,7.50
2023-01-09T11:49:20.770Z,7.50
2023-01-09T11:52:13.929Z,7.60
2023-01-09T11:54:53.721Z,7.50
2023-01-09T11:57:26.955Z,7.50
2023-01-09T12:00:03.186Z,7.50
2023-01-09T12:03:20.812Z,7.50
2023-01-09T12:06:08.722Z,7.50
2023-01-09T12:08:46.376Z,7.50
2023-01-09T12:11:35.669Z,7.60
2023-01-09T12:14:24.868Z,7.60
2023-01-09T12:17:42.166Z,7.60
2023-01-09T12:20:13.835Z,7.60
2023-01-09T12:23:14.313Z,7.50
2023-01-09T12:26:11.031Z,7.60
2023-01-09T12:29:00.908Z,7.70
2023-01-09T12:32:03.891Z,7.70
2023-01-09T12:35:22.379Z,7.80
2023-01-09T12:38:11.428Z,7.70
2023-01-09T12:41:04.979Z,7.80
2023-01-09T12:43:52.347Z,7.70
2023-01-09T12:46:44.742Z,7.70
2023-01-09T12:49:39.528Z,7.60
2023-01-09T12:52:24.315Z,7.50
2023-01-09T12:55:05.278Z,7.50
2023-01-09T12:57:42.124Z,7.50
2023-01-09T13:00:32.124Z,7.50
2023-01-09T13:03:16.547Z,7.30
2023-01-09T13:05:53.486Z,7.10
2023-01-09T13:09:01.504Z,6.90
2023-01-09T13:12:01.069Z,6.80
2023-01-09T13:14:42.296Z,6.70
2023-01-09T13:17:49.086Z,6.70
2023-01-09T13:20:25.960Z,6.80
2023-01-09T13:22:59.256Z,6.90
2023-01-09T13:25:44.620Z,6.90
2023-01-09T13:28:22.918Z,6.80
2023-01-09T13:31:13.147Z,6.80
2023-01-09T13:33:53.264Z,6.80
2023-01-09T13:36:38.655Z,6.80
2023-01-09T13:39:24.329Z,6.80
2023-01-09T13:42:20.993Z,6.80
2023-01-09T13:44:56.529Z,6.70
2023-01-09T13:47:28.993Z,6.70
2023-01-09T13:50:11.376Z,6.70
2023-01-09T13:52:43.723Z,6.60
2023-01-09T13:55:23.869Z,6.60
2023-01-09T13:58:04.784Z,6.70
2023-01-09T14:00:36.503Z,6.80
2023-01-09T14:03:27.071Z,6.80
2023-01-09T14:05:58.723Z,6.80
2023-01-09T14:08:32.697Z,6.80
2023-01-09T14:11:05.313Z,6.90
2023-01-09T14:13:44.241Z,6.90
2023-01-09T14:16:18.240Z,6.90
2023-01-09T14:19:03.522Z,6.90
2023-01-09T14:21:47.816Z,6.90
2023-01-09T14:24:26.977Z,6.90
2023-01-09T14:27:01.099Z,6.90
2023-01-09T14:29:35.665Z,6.80
2023-01-09T14:32:33.785Z,6.70
2023-01-09T14:35:16.078Z,6.70
2023-01-09T14:38:01.447Z,6.70
2023-01-09T14:40:34.016Z,6.70
2023-01-09T14:43:14.658Z,6.70
2023-01-09T14:45:50.026Z,6.70
2023-01-09T14:48:24.397Z,6.70
2023-01-09T14:50:59.814Z,6.50
2023-01-09T14:53:37.248Z,6.50
2023-01-09T14:56:28.857Z,6.40
2023-01-09T14:59:12.952Z,6.30
2023-01-09T15:01:47.665Z,6.40
2023-01-09T15:04:31.679Z,6.40
2023-01-09T15:07:04.990Z,6.40
2023-01-09T15:09:45.047Z,6.40
2023-01-09T15:12:20.668Z,6.40
2023-01-09T15:14:55.848Z,6.40
2023-01-09T15:17:34.379Z,6.40
2023-01-09T15:20:07.752Z,6.40
2023-01-09T15:22:39.531Z,6.40
2023-01-09T15:25:39.260Z,6.30
2023-01-09T15:28:25.455Z,6.30
2023-01-09T15:31:03.752Z,6.20
2023-01-09T15:33:38.746Z,6.10
2023-01-09T15:36:20.718Z,6.10
2023-01-09T15:38:53.619Z,6.00
2023-01-09T15:41:46.258Z,5.90
2023-01-09T15:44:22.700Z,5.90
2023-01-09T15:46:59.950Z,5.80
2023-01-09T15:49:33.515Z,5.70
2023-01-09T15:52:07.136Z,5.70
2023-01-09T15:54:40.537Z,5.60
2023-01-09T15:57:51.313Z,5.60
2023-01-09T16:00:33.549Z,5.60
2023-01-09T16:03:20.336Z,5.50
2023-01-09T16:06:08.389Z,5.50
2023-01-09T16:08:43.248Z,5.40
2023-01-09T16:11:25.599Z,5.40
2023-01-09T16:14:04.242Z,5.50
2023-01-09T16:16:36.043Z,5.50
2023-01-09T16:19:47.811Z,5.50
2023-01-09T16:22:22.606Z,5.50
2023-01-09T16:24:59.793Z,5.50
2023-01-09T16:27:33.829Z,5.40
2023-01-09T16:30:07.740Z,5.40
2023-01-09T16:32:48.059Z,5.40
2023-01-09T16:35:22.502Z,5.30
2023-01-09T16:37:54.406Z,5.20
2023-01-09T16:40:27.292Z,5.10
2023-01-09T16:43:01.147Z,5.10
2023-01-09T16:45:41.481Z,5.00
2023-01-09T16:48:20.838Z,4.90
2023-01-09T16:50:52.545Z,4.80
2023-01-09T16:53:25.628Z,4.70
2023-01-09T16:55:58.312Z,4.70
2023-01-09T16:58:32.479Z,4.70
2023-01-09T17:01:05.026Z,4.60
2023-01-09T17:03:36.878Z,4.50
2023-01-09T17:06:30.277Z,4.50
2023-01-09T17:09:02.141Z,4.40
2023-01-09T17:11:33.973Z,4.40
2023-01-09T17:14:06.891Z,4.30
2023-01-09T17:16:38.955Z,4.30
2023-01-09T17:19:17.829Z,4.30
2023-01-09T17:21:49.783Z,4.30
2023-01-09T17:24:40.253Z,4.40
2023-01-09T17:27:30.412Z,4.40
2023-01-09T17:30:05.615Z,4.50
2023-01-09T17:32:45.311Z,4.50
2023-01-09T17:35:17.358Z,4.60
2023-01-09T17:37:49.054Z,4.60
2023-01-09T17:40:23.235Z,4.60
2023-01-09T17:42:54.984Z,4.60
2023-01-09T17:45:27.993Z,4.60
2023-01-09T17:47:59.870Z,4.50
2023-01-09T17:50:34.600Z,4.60
2023-01-09T17:53:06.284Z,4.60
2023-01-09T17:55:39.187Z,4.60
2023-01-09T17:58:26.064Z,4.60
2023-01-09T18:00:58.716Z,4.60
2023-01-09T18:03:33.401Z,4.60
2023-01-09T18:06:05.475Z,4.60
2023-01-09T18:08:37.461Z,4.60
2023-01-09T18:11:14.093Z,4.60
2023-01-09T18:13:47.350Z,4.50
2023-01-09T18:16:23.921Z,4.50
2023-01-09T18:18:57.783Z,4.50
2023-01-09T18:21:30.565Z,4.50
2023-01-09T18:24:02.456Z,4.50
2023-01-09T18:26:34.139Z,4.50
2023-01-09T18:29:05.970Z,4.50
2023-01-09T18:31:38.291Z,4.50
2023-01-09T18:34:10.159Z,4.40
2023-01-09T18:36:41.963Z,4.50
2023-01-09T18:39:14.130Z,4.50
2023-01-09T18:41:45.868Z,4.40
2023-01-09T18:44:20.044Z,4.40
2023-01-09T18:46:51.758Z,4.40
2023-01-09T18:49:23.460Z,4.40
2023-01-09T18:51:55.412Z,4.40
2023-01-09T18:54:27.216Z,4.40
2023-01-09T18:56:58.953Z,4.40
2023-01-09T18:59:30.848Z,4.50
2023-01-09T19:02:02.597Z,4.40
2023-01-09T19:04:34.289Z,4.40
2023-01-09T19:07:06.024Z,4.40
2023-01-09T19:09:37.691Z,4.40
2023-01-09T19:12:09.548Z,4.40
2023-01-09T19:14:41.251Z,4.30
2023-01-09T19:17:13.390Z,4.40
2023-01-09T19:19:45.166Z,4.40
2023-01-09T19:22:16.988Z,4.40
2023-01-09T19:24:49.352Z,4.40
2023-01-09T19:27:21.076Z,4.40
2023-01-09T19:29:52.736Z,4.40
2023-01-09T19:32:24.554Z,4.40
2023-01-09T19:34:56.249Z,4.40
2023-01-09T19:37:27.947Z,4.40
2023-01-09T19:39:59.682Z,4.40
2023-01-09T19:42:31.413Z,4.40
2023-01-09T19:45:03.679Z,4.40
2023-01-09T19:47:36.471Z,4.40
2023-01-09T19:50:08.851Z,4.40
2023-01-09T19:52:43.162Z,4.40
2023-01-09T19:55:14.930Z,4.40
2023-01-09T19:57:46.770Z,4.40
2023-01-09T20:00:18.617Z,4.40
2023-01-09T20:02:50.300Z,4.40
2023-01-09T20:05:22.132Z,4.30
2023-01-09T20:07:55.198Z,4.30
2023-01-09T20:10:26.893Z,4.30
2023-01-09T20:12:58.545Z,4.30
2023-01-09T20:15:30.393Z,4.30
2023-01-09T20:18:04.197Z,4.30
2023-01-09T20:20:36.542Z,4.20
2023-01-09T20:23:10.367Z,4.30
2023-01-09T20:25:43.872Z,4.30
2023-01-09T20:28:16.365Z,4.30
2023-01-09T20:30:51.579Z,4.30
2023-01-09T20:33:23.361Z,4.30
2023-01-09T20:35:55.117Z,4.30
2023-01-09T20:38:26.796Z,4.40
2023-01-09T20:40:58.597Z,4.40
2023-01-09T20:43:30.269Z,4.30
2023-01-09T20:46:03.442Z,4.30
2023-01-09T20:48:35.193Z,4.30
2023-01-09T20:51:07.810Z,4.30
2023-01-09T20:53:44.629Z,4.30
2023-01-09T20:56:16.372Z,4.30
2023-01-09T20:58:48.235Z,4.40
2023-01-09T21:01:21.808Z,4.40
2023-01-09T21:03:54.702Z,4.40
2023-01-09T21:06:27.710Z,4.40
2023-01-09T21:08:59.521Z,4.50
2023-01-09T21:11:33.599Z,4.50
2023-01-09T21:14:05.264Z,4.50
2023-01-09T21:16:37.115Z,4.50
2023-01-09T21:19:09.270Z,4.50
2023-01-09T21:21:41.040Z,4.60
2023-01-09T21:24:12.831Z,4.60
2023-01-09T21:26:44.790Z,4.60
2023-01-09T21:29:16.546Z,4.60
2023-01-09T21:31:48.396Z,4.60
2023-01-09T21:34:20.808Z,4.60
2023-01-09T21:36:52.619Z,4.60
2023-01-09T21:39:24.689Z,4.50
2023-01-09T21:42:14.848Z,4.50
2023-01-09T21:45:05.253Z,4.50
2023-01-09T21:47:36.927Z,4.50
2023-01-09T21:50:09.168Z,4.50
2023-01-09T21:52:40.935Z,4.50
2023-01-09T21:55:12.675Z,4.50
2023-01-09T21:57:44.415Z,4.50
2023-01-09T22:00:16.524Z,4.50
2023-01-09T22:02:48.488Z,4.60
2023-01-09T22:05:20.476Z,4.60
2023-01-09T22:07:52.182Z,4.70
2023-01-09T22:10:23.933Z,4.70
2023-01-09T22:13:15.934Z,4.70
2023-01-09T22:15:48.639Z,4.70
2023-01-09T22:18:20.312Z,4.80
2023-01-09T22:20:52.113Z,4.80
2023-01-09T22:23:23.954Z,4.80
2023-01-09T22:25:56.385Z,4.80
2023-01-09T22:28:28.056Z,4.90
2023-01-09T22:30:59.731Z,4.90
2023-01-09T22:33:31.423Z,4.80
2023-01-09T22:36:08.349Z,4.80
2023-01-09T22:38:40.159Z,4.80
2023-01-09T22:41:12.321Z,4.90
2023-01-09T22:43:44.071Z,4.80
2023-01-09T22:46:15.964Z,4.80
2023-01-09T22:48:47.747Z,4.80
2023-01-09T22:51:21.019Z,4.80
2023-01-09T22:53:52.776Z,4.80
2023-01-09T22:56:24.441Z,4.80
2023-01-09T22:58:59.039Z,4.80
2023-01-09T23:01:30.837Z,4.80
2023-01-09T23:04:04.654Z,4.80
2023-01-09T23:06:36.323Z,4.80
2023-01-09T23:09:08.205Z,4.70
2023-01-09T23:12:12.598Z,4.70
2023-01-09T23:14:44.340Z,4.70
2023-01-09T23:17:16.100Z,4.60
2023-01-09T23:19:47.779Z,4.60
2023-01-09T23:22:19.503Z,4.50
2023-01-09T23:24:51.221Z,4.50
2023-01-09T23:27:22.985Z,4.50
2023-01-09T23:29:54.661Z,4.40
2023-01-09T23:32:26.381Z,4.40
2023-01-09T23:34:58.283Z,4.40
2023-01-09T23:37:30.194Z,4.40
2023-01-09T23:40:01.927Z,4.40
2023-01-09T23:42:52.351Z,4.40
2023-01-09T23:45:24.141Z,4.30
2023-01-09T23:47:55.836Z,4.30
2023-01-09T23:50:27.574Z,4.20
2023-01-09T23:52:59.495Z,4.30
2023-01-09T23:55:31.729Z,4.20
2023-01-09T23:58:03.502Z,4.30
